sensor_id;sensor_type;location;lat;lon;timestamp;P1;durP1;ratioP1;P2;durP2;ratioP2
33786;SDS011;29742;51.540;9.358;2023-05-20T00:02:03;0.20;;;0.10;;
33786;SDS011;29742;51.540;9.358;2023-05-20T00:07:04;0.40;;;0.20;;
33786;SDS011;29742;51.540;9.358;2023-05-20T00:12:04;0.60;;;0.30;;
33786;SDS011;29742;51.540;9.358;2023-05-20T00:17:05;0.10;;;0.10;;
33786;SDS011;29742;51.540;9.358;2023-05-20T00:22:05;0.50;;;0.30;;
33786;SDS011;29742;51.540;9.358;2023-05-20T00:27:06;0.10;;;0.10;;
33786;SDS011;29742;51.540;9.358;2023-05-20T00:32:06;0.13;;;0.13;;
33786;SDS011;29742;51.540;9.358;2023-05-20T00:37:07;0.10;;;0.10;;
33786;SDS011;29742;51.540;9.358;2023-05-20T00:42:07;0.20;;;0.17;;
33786;SDS011;29742;51.540;9.358;2023-05-20T00:47:08;0.25;;;0.25;;
33786;SDS011;29742;51.540;9.358;2023-05-20T00:52:08;0.10;;;0.10;;
33786;SDS011;29742;51.540;9.358;2023-05-20T00:57:08;0.20;;;0.20;;
33786;SDS011;29742;51.540;9.358;2023-05-20T01:02:09;0.28;;;0.13;;
33786;SDS011;29742;51.540;9.358;2023-05-20T01:07:10;0.57;;;0.20;;
33786;SDS011;29742;51.540;9.358;2023-05-20T01:17:21;0.13;;;0.13;;
33786;SDS011;29742;51.540;9.358;2023-05-20T01:22:26;0.10;;;0.10;;
33786;SDS011;29742;51.540;9.358;2023-05-20T01:27:26;0.22;;;0.20;;
33786;SDS011;29742;51.540;9.358;2023-05-20T01:32:40;0.10;;;0.10;;
33786;SDS011;29742;51.540;9.358;2023-05-20T01:37:48;0.30;;;0.30;;
33786;SDS011;29742;51.540;9.358;2023-05-20T01:42:49;0.35;;;0.20;;
33786;SDS011;29742;51.540;9.358;2023-05-20T01:47:52;0.20;;;0.10;;
33786;SDS011;29742;51.540;9.358;2023-05-20T01:52:52;0.20;;;0.20;;
33786;SDS011;29742;51.540;9.358;2023-05-20T01:57:52;0.20;;;0.15;;
33786;SDS011;29742;51.540;9.358;2023-05-20T02:02:53;0.15;;;0.10;;
33786;SDS011;29742;51.540;9.358;2023-05-20T02:07:53;0.10;;;0.10;;
33786;SDS011;29742;51.540;9.358;2023-05-20T02:12:53;0.10;;;0.10;;
33786;SDS011;29742;51.540;9.358;2023-05-20T02:17:54;0.30;;;0.20;;
33786;SDS011;29742;51.540;9.358;2023-05-20T02:22:56;0.25;;;0.10;;
33786;SDS011;29742;51.540;9.358;2023-05-20T02:27:57;0.22;;;0.20;;
33786;SDS011;29742;51.540;9.358;2023-05-20T02:32:57;0.28;;;0.20;;
33786;SDS011;29742;51.540;9.358;2023-05-20T02:37:58;0.35;;;0.35;;
33786;SDS011;29742;51.540;9.358;2023-05-20T02:42:59;2.20;;;0.30;;
33786;SDS011;29742;51.540;9.358;2023-05-20T02:48:00;0.20;;;0.20;;
33786;SDS011;29742;51.540;9.358;2023-05-20T02:53:00;0.10;;;0.10;;
33786;SDS011;29742;51.540;9.358;2023-05-20T02:58:01;0.32;;;0.22;;
33786;SDS011;29742;51.540;9.358;2023-05-20T03:03:01;0.40;;;0.20;;
33786;SDS011;29742;51.540;9.358;2023-05-20T03:08:08;1.10;;;0.43;;
33786;SDS011;29742;51.540;9.358;2023-05-20T03:13:09;0.22;;;0.15;;
33786;SDS011;29742;51.540;9.358;2023-05-20T03:18:10;0.30;;;0.30;;
33786;SDS011;29742;51.540;9.358;2023-05-20T03:23:11;0.13;;;0.13;;
33786;SDS011;29742;51.540;9.358;2023-05-20T03:28:12;0.60;;;0.50;;
33786;SDS011;29742;51.540;9.358;2023-05-20T03:33:12;0.40;;;0.10;;
33786;SDS011;29742;51.540;9.358;2023-05-20T03:38:14;0.65;;;0.40;;
33786;SDS011;29742;51.540;9.358;2023-05-20T03:43:15;0.40;;;0.30;;
33786;SDS011;29742;51.540;9.358;2023-05-20T03:48:15;0.15;;;0.15;;
33786;SDS011;29742;51.540;9.358;2023-05-20T03:53:15;0.15;;;0.15;;
33786;SDS011;29742;51.540;9.358;2023-05-20T03:58:16;1.67;;;0.20;;
33786;SDS011;29742;51.540;9.358;2023-05-20T04:03:16;0.30;;;0.30;;
33786;SDS011;29742;51.540;9.358;2023-05-20T04:08:17;0.43;;;0.30;;
33786;SDS011;29742;51.540;9.358;2023-05-20T04:13:17;0.08;;;0.08;;
33786;SDS011;29742;51.540;9.358;2023-05-20T04:18:18;0.40;;;0.20;;
33786;SDS011;29742;51.540;9.358;2023-05-20T04:23:18;0.45;;;0.40;;
33786;SDS011;29742;51.540;9.358;2023-05-20T04:28:18;0.10;;;0.10;;
33786;SDS011;29742;51.540;9.358;2023-05-20T04:33:23;0.30;;;0.28;;
33786;SDS011;29742;51.540;9.358;2023-05-20T04:38:25;0.20;;;0.20;;
33786;SDS011;29742;51.540;9.358;2023-05-20T04:43:28;0.70;;;0.25;;
33786;SDS011;29742;51.540;9.358;2023-05-20T04:48:29;0.82;;;0.32;;
33786;SDS011;29742;51.540;9.358;2023-05-20T04:53:29;0.20;;;0.20;;
33786;SDS011;29742;51.540;9.358;2023-05-20T04:58:29;0.20;;;0.20;;
33786;SDS011;29742;51.540;9.358;2023-05-20T05:03:30;0.20;;;0.20;;
33786;SDS011;29742;51.540;9.358;2023-05-20T05:08:31;0.80;;;0.30;;
33786;SDS011;29742;51.540;9.358;2023-05-20T05:13:31;0.20;;;0.15;;
33786;SDS011;29742;51.540;9.358;2023-05-20T05:18:31;0.20;;;0.20;;
33786;SDS011;29742;51.540;9.358;2023-05-20T05:23:32;0.10;;;0.10;;
33786;SDS011;29742;51.540;9.358;2023-05-20T05:28:32;0.40;;;0.30;;
33786;SDS011;29742;51.540;9.358;2023-05-20T05:33:33;0.15;;;0.15;;
33786;SDS011;29742;51.540;9.358;2023-05-20T05:38:33;0.30;;;0.17;;
33786;SDS011;29742;51.540;9.358;2023-05-20T05:43:33;0.22;;;0.10;;
33786;SDS011;29742;51.540;9.358;2023-05-20T05:48:35;0.20;;;0.20;;
33786;SDS011;29742;51.540;9.358;2023-05-20T05:53:35;0.15;;;0.15;;
33786;SDS011;29742;51.540;9.358;2023-05-20T05:58:36;0.10;;;0.10;;
33786;SDS011;29742;51.540;9.358;2023-05-20T06:03:37;0.20;;;0.20;;
33786;SDS011;29742;51.540;9.358;2023-05-20T06:08:37;0.17;;;0.13;;
33786;SDS011;29742;51.540;9.358;2023-05-20T06:13:37;1.27;;;0.25;;
33786;SDS011;29742;51.540;9.358;2023-05-20T06:18:38;0.40;;;0.20;;
33786;SDS011;29742;51.540;9.358;2023-05-20T06:23:38;0.20;;;0.20;;
33786;SDS011;29742;51.540;9.358;2023-05-20T06:28:39;0.40;;;0.30;;
33786;SDS011;29742;51.540;9.358;2023-05-20T06:33:39;0.20;;;0.10;;
33786;SDS011;29742;51.540;9.358;2023-05-20T06:38:40;0.55;;;0.30;;
33786;SDS011;29742;51.540;9.358;2023-05-20T06:43:40;0.80;;;0.22;;
33786;SDS011;29742;51.540;9.358;2023-05-20T06:48:40;1.00;;;0.68;;
33786;SDS011;29742;51.540;9.358;2023-05-20T06:53:41;0.15;;;0.15;;
33786;SDS011;29742;51.540;9.358;2023-05-20T06:58:41;0.30;;;0.30;;
33786;SDS011;29742;51.540;9.358;2023-05-20T07:03:41;0.13;;;0.13;;
33786;SDS011;29742;51.540;9.358;2023-05-20T07:08:43;0.13;;;0.13;;
33786;SDS011;29742;51.540;9.358;2023-05-20T07:13:43;0.40;;;0.20;;
33786;SDS011;29742;51.540;9.358;2023-05-20T07:18:44;0.40;;;0.40;;
33786;SDS011;29742;51.540;9.358;2023-05-20T07:23:44;1.95;;;0.30;;
33786;SDS011;29742;51.540;9.358;2023-05-20T07:28:45;0.85;;;0.65;;
33786;SDS011;29742;51.540;9.358;2023-05-20T07:33:46;2.30;;;0.60;;
33786;SDS011;29742;51.540;9.358;2023-05-20T07:38:46;0.52;;;0.50;;
33786;SDS011;29742;51.540;9.358;2023-05-20T07:43:46;0.55;;;0.38;;
33786;SDS011;29742;51.540;9.358;2023-05-20T07:48:47;0.82;;;0.57;;
33786;SDS011;29742;51.540;9.358;2023-05-20T07:53:47;0.40;;;0.40;;
33786;SDS011;29742;51.540;9.358;2023-05-20T07:58:51;0.95;;;0.50;;
33786;SDS011;29742;51.540;9.358;2023-05-20T08:03:52;0.63;;;0.50;;
33786;SDS011;29742;51.540;9.358;2023-05-20T08:08:53;0.73;;;0.60;;
33786;SDS011;29742;51.540;9.358;2023-05-20T08:13:53;0.82;;;0.63;;
33786;SDS011;29742;51.540;9.358;2023-05-20T08:18:54;0.45;;;0.30;;
33786;SDS011;29742;51.540;9.358;2023-05-20T08:23:54;0.55;;;0.43;;
33786;SDS011;29742;51.540;9.358;2023-05-20T08:28:55;1.05;;;0.75;;
33786;SDS011;29742;51.540;9.358;2023-05-20T08:33:55;2.35;;;0.68;;
33786;SDS011;29742;51.540;9.358;2023-05-20T08:38:56;0.85;;;0.75;;
33786;SDS011;29742;51.540;9.358;2023-05-20T08:43:56;0.55;;;0.35;;
33786;SDS011;29742;51.540;9.358;2023-05-20T08:48:58;0.93;;;0.60;;
33786;SDS011;29742;51.540;9.358;2023-05-20T08:53:58;0.52;;;0.43;;
33786;SDS011;29742;51.540;9.358;2023-05-20T08:58:59;0.80;;;0.50;;
33786;SDS011;29742;51.540;9.358;2023-05-20T09:04:00;0.55;;;0.55;;
33786;SDS011;29742;51.540;9.358;2023-05-20T09:09:00;1.88;;;0.80;;
33786;SDS011;29742;51.540;9.358;2023-05-20T09:14:01;1.48;;;0.75;;
33786;SDS011;29742;51.540;9.358;2023-05-20T09:19:01;0.75;;;0.68;;
33786;SDS011;29742;51.540;9.358;2023-05-20T09:24:05;0.65;;;0.35;;
33786;SDS011;29742;51.540;9.358;2023-05-20T09:29:05;0.50;;;0.40;;
33786;SDS011;29742;51.540;9.358;2023-05-20T09:34:07;1.10;;;0.68;;
33786;SDS011;29742;51.540;9.358;2023-05-20T09:39:08;0.80;;;0.55;;
33786;SDS011;29742;51.540;9.358;2023-05-20T09:44:15;0.85;;;0.63;;
33786;SDS011;29742;51.540;9.358;2023-05-20T09:49:16;0.88;;;0.68;;
33786;SDS011;29742;51.540;9.358;2023-05-20T09:54:17;0.98;;;0.68;;
33786;SDS011;29742;51.540;9.358;2023-05-20T09:59:18;0.95;;;0.65;;
33786;SDS011;29742;51.540;9.358;2023-05-20T10:04:20;1.52;;;0.93;;
33786;SDS011;29742;51.540;9.358;2023-05-20T10:20:32;0.90;;;0.50;;
33786;SDS011;29742;51.540;9.358;2023-05-20T10:25:32;1.38;;;0.77;;
33786;SDS011;29742;51.540;9.358;2023-05-20T10:30:32;0.68;;;0.57;;
33786;SDS011;29742;51.540;9.358;2023-05-20T10:35:33;0.90;;;0.60;;
33786;SDS011;29742;51.540;9.358;2023-05-20T10:40:33;1.13;;;0.50;;
33786;SDS011;29742;51.540;9.358;2023-05-20T10:45:34;0.90;;;0.70;;
33786;SDS011;29742;51.540;9.358;2023-05-20T10:50:36;0.88;;;0.60;;
33786;SDS011;29742;51.540;9.358;2023-05-20T10:55:38;2.42;;;0.57;;
33786;SDS011;29742;51.540;9.358;2023-05-20T11:00:39;1.00;;;0.47;;
33786;SDS011;29742;51.540;9.358;2023-05-20T11:05:39;0.65;;;0.65;;
33786;SDS011;29742;51.540;9.358;2023-05-20T11:10:40;0.60;;;0.45;;
33786;SDS011;29742;51.540;9.358;2023-05-20T11:15:41;0.88;;;0.52;;
33786;SDS011;29742;51.540;9.358;2023-05-20T11:20:42;0.40;;;0.40;;
33786;SDS011;29742;51.540;9.358;2023-05-20T11:25:44;0.55;;;0.50;;
33786;SDS011;29742;51.540;9.358;2023-05-20T11:30:44;0.55;;;0.43;;
33786;SDS011;29742;51.540;9.358;2023-05-20T11:35:45;0.80;;;0.70;;
33786;SDS011;29742;51.540;9.358;2023-05-20T11:40:50;0.70;;;0.70;;
33786;SDS011;29742;51.540;9.358;2023-05-20T11:45:52;0.60;;;0.52;;
33786;SDS011;29742;51.540;9.358;2023-05-20T11:50:54;0.50;;;0.50;;
33786;SDS011;29742;51.540;9.358;2023-05-20T11:55:56;0.88;;;0.60;;
33786;SDS011;29742;51.540;9.358;2023-05-20T12:00:57;0.60;;;0.50;;
33786;SDS011;29742;51.540;9.358;2023-05-20T12:05:59;0.98;;;0.40;;
33786;SDS011;29742;51.540;9.358;2023-05-20T12:11:01;0.50;;;0.50;;
33786;SDS011;29742;51.540;9.358;2023-05-20T12:16:01;0.50;;;0.47;;
33786;SDS011;29742;51.540;9.358;2023-05-20T12:21:03;0.95;;;0.63;;
33786;SDS011;29742;51.540;9.358;2023-05-20T12:26:03;0.65;;;0.63;;
33786;SDS011;29742;51.540;9.358;2023-05-20T12:31:04;1.10;;;0.57;;
33786;SDS011;29742;51.540;9.358;2023-05-20T12:36:05;0.40;;;0.40;;
33786;SDS011;29742;51.540;9.358;2023-05-20T12:41:08;0.50;;;0.50;;
33786;SDS011;29742;51.540;9.358;2023-05-20T12:46:08;0.57;;;0.35;;
33786;SDS011;29742;51.540;9.358;2023-05-20T12:51:08;0.88;;;0.60;;
33786;SDS011;29742;51.540;9.358;2023-05-20T12:56:09;1.48;;;0.60;;
33786;SDS011;29742;51.540;9.358;2023-05-20T13:01:09;0.68;;;0.60;;
33786;SDS011;29742;51.540;9.358;2023-05-20T13:06:10;0.70;;;0.40;;
33786;SDS011;29742;51.540;9.358;2023-05-20T13:11:10;0.43;;;0.43;;
33786;SDS011;29742;51.540;9.358;2023-05-20T13:16:10;0.77;;;0.65;;
33786;SDS011;29742;51.540;9.358;2023-05-20T13:21:11;0.88;;;0.38;;
33786;SDS011;29742;51.540;9.358;2023-05-20T13:26:11;0.43;;;0.43;;
33786;SDS011;29742;51.540;9.358;2023-05-20T13:31:12;0.95;;;0.73;;
33786;SDS011;29742;51.540;9.358;2023-05-20T13:36:12;0.70;;;0.50;;
33786;SDS011;29742;51.540;9.358;2023-05-20T13:41:13;0.30;;;0.30;;
33786;SDS011;29742;51.540;9.358;2023-05-20T13:46:14;1.13;;;0.80;;
33786;SDS011;29742;51.540;9.358;2023-05-20T13:51:15;0.65;;;0.32;;
33786;SDS011;29742;51.540;9.358;2023-05-20T13:56:15;1.42;;;0.85;;
33786;SDS011;29742;51.540;9.358;2023-05-20T14:01:16;1.08;;;0.68;;
33786;SDS011;29742;51.540;9.358;2023-05-20T14:06:16;0.60;;;0.50;;
33786;SDS011;29742;51.540;9.358;2023-05-20T14:11:17;0.52;;;0.45;;
33786;SDS011;29742;51.540;9.358;2023-05-20T14:16:19;0.50;;;0.50;;
33786;SDS011;29742;51.540;9.358;2023-05-20T14:21:19;0.40;;;0.40;;
33786;SDS011;29742;51.540;9.358;2023-05-20T14:26:20;0.60;;;0.55;;
33786;SDS011;29742;51.540;9.358;2023-05-20T14:31:20;0.95;;;0.70;;
33786;SDS011;29742;51.540;9.358;2023-05-20T14:36:21;0.90;;;0.50;;
33786;SDS011;29742;51.540;9.358;2023-05-20T14:41:21;0.80;;;0.63;;
33786;SDS011;29742;51.540;9.358;2023-05-20T14:46:21;1.83;;;0.85;;
33786;SDS011;29742;51.540;9.358;2023-05-20T14:51:22;0.55;;;0.50;;
33786;SDS011;29742;51.540;9.358;2023-05-20T14:56:22;0.63;;;0.55;;
33786;SDS011;29742;51.540;9.358;2023-05-20T15:01:23;1.17;;;0.95;;
33786;SDS011;29742;51.540;9.358;2023-05-20T15:06:23;0.70;;;0.68;;
33786;SDS011;29742;51.540;9.358;2023-05-20T15:11:24;0.73;;;0.60;;
33786;SDS011;29742;51.540;9.358;2023-05-20T15:16:24;0.70;;;0.60;;
33786;SDS011;29742;51.540;9.358;2023-05-20T15:21:25;0.82;;;0.77;;
33786;SDS011;29742;51.540;9.358;2023-05-20T15:26:26;0.82;;;0.70;;
33786;SDS011;29742;51.540;9.358;2023-05-20T15:31:26;4.28;;;0.75;;
33786;SDS011;29742;51.540;9.358;2023-05-20T15:36:27;1.75;;;0.70;;
33786;SDS011;29742;51.540;9.358;2023-05-20T15:41:27;1.45;;;0.85;;
33786;SDS011;29742;51.540;9.358;2023-05-20T15:46:30;0.63;;;0.60;;
33786;SDS011;29742;51.540;9.358;2023-05-20T15:51:31;1.65;;;1.00;;
33786;SDS011;29742;51.540;9.358;2023-05-20T15:56:31;2.08;;;0.85;;
33786;SDS011;29742;51.540;9.358;2023-05-20T16:01:31;1.00;;;0.75;;
33786;SDS011;29742;51.540;9.358;2023-05-20T16:06:32;0.85;;;0.85;;
33786;SDS011;29742;51.540;9.358;2023-05-20T16:11:33;1.08;;;0.70;;
33786;SDS011;29742;51.540;9.358;2023-05-20T16:16:33;1.05;;;0.75;;
33786;SDS011;29742;51.540;9.358;2023-05-20T16:21:34;1.48;;;0.90;;
33786;SDS011;29742;51.540;9.358;2023-05-20T16:26:34;1.40;;;0.93;;
33786;SDS011;29742;51.540;9.358;2023-05-20T16:31:34;1.55;;;0.88;;
33786;SDS011;29742;51.540;9.358;2023-05-20T16:36:35;0.95;;;0.90;;
33786;SDS011;29742;51.540;9.358;2023-05-20T16:41:35;2.80;;;0.85;;
33786;SDS011;29742;51.540;9.358;2023-05-20T16:46:36;1.20;;;0.80;;
33786;SDS011;29742;51.540;9.358;2023-05-20T16:51:36;0.70;;;0.65;;
33786;SDS011;29742;51.540;9.358;2023-05-20T16:56:36;2.05;;;1.15;;
33786;SDS011;29742;51.540;9.358;2023-05-20T17:01:37;2.00;;;1.27;;
33786;SDS011;29742;51.540;9.358;2023-05-20T17:06:37;1.50;;;1.15;;
33786;SDS011;29742;51.540;9.358;2023-05-20T17:11:38;1.13;;;1.05;;
33786;SDS011;29742;51.540;9.358;2023-05-20T17:16:39;1.38;;;1.17;;
33786;SDS011;29742;51.540;9.358;2023-05-20T17:21:40;1.77;;;1.20;;
33786;SDS011;29742;51.540;9.358;2023-05-20T17:26:40;2.17;;;1.20;;
33786;SDS011;29742;51.540;9.358;2023-05-20T17:31:41;2.50;;;1.65;;
33786;SDS011;29742;51.540;9.358;2023-05-20T17:36:42;1.10;;;0.95;;
33786;SDS011;29742;51.540;9.358;2023-05-20T17:41:43;1.30;;;1.00;;
33786;SDS011;29742;51.540;9.358;2023-05-20T17:46:43;2.08;;;0.90;;
33786;SDS011;29742;51.540;9.358;2023-05-20T17:51:44;1.73;;;1.17;;
33786;SDS011;29742;51.540;9.358;2023-05-20T17:56:45;1.52;;;1.10;;
33786;SDS011;29742;51.540;9.358;2023-05-20T18:01:46;2.05;;;1.20;;
33786;SDS011;29742;51.540;9.358;2023-05-20T18:06:46;1.90;;;1.23;;
33786;SDS011;29742;51.540;9.358;2023-05-20T18:11:47;1.92;;;1.30;;
33786;SDS011;29742;51.540;9.358;2023-05-20T18:16:47;1.15;;;1.05;;
33786;SDS011;29742;51.540;9.358;2023-05-20T18:21:48;1.23;;;1.08;;
33786;SDS011;29742;51.540;9.358;2023-05-20T18:26:48;1.55;;;1.25;;
33786;SDS011;29742;51.540;9.358;2023-05-20T18:31:49;1.27;;;1.17;;
33786;SDS011;29742;51.540;9.358;2023-05-20T18:36:49;1.27;;;0.90;;
33786;SDS011;29742;51.540;9.358;2023-05-20T18:41:50;1.13;;;1.00;;
33786;SDS011;29742;51.540;9.358;2023-05-20T18:46:50;2.55;;;1.35;;
33786;SDS011;29742;51.540;9.358;2023-05-20T18:51:51;1.20;;;1.08;;
33786;SDS011;29742;51.540;9.358;2023-05-20T18:56:51;1.30;;;1.00;;
33786;SDS011;29742;51.540;9.358;2023-05-20T19:01:51;1.55;;;0.90;;
33786;SDS011;29742;51.540;9.358;2023-05-20T19:06:52;1.55;;;0.93;;
33786;SDS011;29742;51.540;9.358;2023-05-20T19:11:52;1.50;;;1.10;;
33786;SDS011;29742;51.540;9.358;2023-05-20T19:16:57;1.00;;;0.82;;
33786;SDS011;29742;51.540;9.358;2023-05-20T19:21:59;1.60;;;0.93;;
33786;SDS011;29742;51.540;9.358;2023-05-20T19:27:00;1.20;;;0.95;;
33786;SDS011;29742;51.540;9.358;2023-05-20T19:32:01;1.20;;;1.00;;
33786;SDS011;29742;51.540;9.358;2023-05-20T19:37:02;1.48;;;0.90;;
33786;SDS011;29742;51.540;9.358;2023-05-20T19:42:02;1.33;;;1.13;;
33786;SDS011;29742;51.540;9.358;2023-05-20T19:47:03;1.08;;;0.98;;
33786;SDS011;29742;51.540;9.358;2023-05-20T19:52:04;1.00;;;0.82;;
33786;SDS011;29742;51.540;9.358;2023-05-20T19:57:05;1.75;;;1.30;;
33786;SDS011;29742;51.540;9.358;2023-05-20T20:02:06;1.83;;;1.40;;
33786;SDS011;29742;51.540;9.358;2023-05-20T20:07:06;1.80;;;0.65;;
33786;SDS011;29742;51.540;9.358;2023-05-20T20:12:08;1.02;;;0.80;;
33786;SDS011;29742;51.540;9.358;2023-05-20T20:17:08;1.02;;;0.93;;
33786;SDS011;29742;51.540;9.358;2023-05-20T20:22:12;1.05;;;0.88;;
33786;SDS011;29742;51.540;9.358;2023-05-20T20:27:13;1.50;;;1.30;;
33786;SDS011;29742;51.540;9.358;2023-05-20T20:32:14;1.13;;;1.02;;
33786;SDS011;29742;51.540;9.358;2023-05-20T20:37:14;1.58;;;0.88;;
33786;SDS011;29742;51.540;9.358;2023-05-20T20:42:16;1.08;;;0.98;;
33786;SDS011;29742;51.540;9.358;2023-05-20T20:47:17;0.93;;;0.80;;
33786;SDS011;29742;51.540;9.358;2023-05-20T20:52:22;0.98;;;0.90;;
33786;SDS011;29742;51.540;9.358;2023-05-20T20:57:22;1.05;;;0.88;;
33786;SDS011;29742;51.540;9.358;2023-05-20T21:02:24;1.42;;;0.95;;
33786;SDS011;29742;51.540;9.358;2023-05-20T21:07:25;0.80;;;0.70;;
33786;SDS011;29742;51.540;9.358;2023-05-20T21:12:25;1.02;;;0.90;;
33786;SDS011;29742;51.540;9.358;2023-05-20T21:17:25;0.93;;;0.75;;
33786;SDS011;29742;51.540;9.358;2023-05-20T21:22:26;1.10;;;0.77;;
33786;SDS011;29742;51.540;9.358;2023-05-20T21:27:26;1.10;;;0.95;;
33786;SDS011;29742;51.540;9.358;2023-05-20T21:32:27;1.63;;;0.88;;
33786;SDS011;29742;51.540;9.358;2023-05-20T21:37:27;1.30;;;0.80;;
33786;SDS011;29742;51.540;9.358;2023-05-20T21:42:28;0.85;;;0.80;;
33786;SDS011;29742;51.540;9.358;2023-05-20T21:47:28;1.00;;;0.75;;
33786;SDS011;29742;51.540;9.358;2023-05-20T21:52:28;0.73;;;0.70;;
33786;SDS011;29742;51.540;9.358;2023-05-20T21:57:29;1.27;;;1.00;;
33786;SDS011;29742;51.540;9.358;2023-05-20T22:02:29;2.28;;;0.90;;
33786;SDS011;29742;51.540;9.358;2023-05-20T22:07:30;0.93;;;0.70;;
33786;SDS011;29742;51.540;9.358;2023-05-20T22:12:30;0.98;;;0.75;;
33786;SDS011;29742;51.540;9.358;2023-05-20T22:17:31;0.77;;;0.70;;
33786;SDS011;29742;51.540;9.358;2023-05-20T22:27:37;0.68;;;0.68;;
33786;SDS011;29742;51.540;9.358;2023-05-20T22:32:41;1.20;;;0.82;;
33786;SDS011;29742;51.540;9.358;2023-05-20T22:37:42;1.17;;;0.85;;
33786;SDS011;29742;51.540;9.358;2023-05-20T22:42:42;1.17;;;0.70;;
33786;SDS011;29742;51.540;9.358;2023-05-20T22:47:44;0.88;;;0.88;;
33786;SDS011;29742;51.540;9.358;2023-05-20T22:52:45;1.48;;;0.80;;
33786;SDS011;29742;51.540;9.358;2023-05-20T22:57:45;1.25;;;0.98;;
33786;SDS011;29742;51.540;9.358;2023-05-20T23:02:45;0.77;;;0.73;;
33786;SDS011;29742;51.540;9.358;2023-05-20T23:07:48;0.70;;;0.63;;
33786;SDS011;29742;51.540;9.358;2023-05-20T23:12:51;1.25;;;0.82;;
33786;SDS011;29742;51.540;9.358;2023-05-20T23:17:52;0.88;;;0.63;;
33786;SDS011;29742;51.540;9.358;2023-05-20T23:22:52;0.88;;;0.73;;
33786;SDS011;29742;51.540;9.358;2023-05-20T23:27:52;1.08;;;0.93;;
33786;SDS011;29742;51.540;9.358;2023-05-20T23:32:53;0.45;;;0.40;;
33786;SDS011;29742;51.540;9.358;2023-05-20T23:37:54;1.02;;;0.80;;
33786;SDS011;29742;51.540;9.358;2023-05-20T23:42:54;1.17;;;0.70;;
33786;SDS011;29742;51.540;9.358;2023-05-20T23:47:55;1.45;;;0.75;;
33786;SDS011;29742;51.540;9.358;2023-05-20T23:52:55;0.98;;;0.50;;
33786;SDS011;29742;51.540;9.358;2023-05-20T23:57:56;0.50;;;0.50;;
